Time,TemperatureF,DewpointF,PressureIn,WindDirection,WindDirectionDegrees,WindSpeedMPH,WindSpeedGustMPH,Humidity,HourlyPrecipIn,Conditions,Clouds,dailyrainin,SoftwareType,DateUTC
2013-12-24 00:16:00,23.6,14.0,30.31,SSE,160,0.0,4.0,66,0.00,,,0.00,weatherlink.com 1.10,2013-12-24 07:16:00,
2013-12-24 00:29:00,23.3,14.0,30.31,SSE,161,0.0,0.0,67,0.00,,,0.00,weatherlink.com 1.10,2013-12-24 07:29:00,
2013-12-24 00:44:00,23.3,14.0,30.29,SSE,168,0.0,0.0,67,0.00,,,0.00,weatherlink.com 1.10,2013-12-24 07:44:00,
2013-12-24 00:59:00,22.3,12.0,30.28,SSE,151,0.0,5.0,65,0.00,,,0.00,weatherlink.com 1.10,2013-12-24 07:59:00,
2013-12-24 01:13:00,20.8,12.0,30.28,South,171,0.0,5.0,69,0.00,,,0.00,weatherlink.com 1.10,2013-12-24 08:13:00,
2013-12-24 01:28:00,21.8,13.0,30.27,SE,142,2.0,5.0,69,0.00,,,0.00,weatherlink.com 1.10,2013-12-24 08:28:00,
2013-12-24 01:44:00,23.2,13.0,30.26,South,179,0.0,5.0,66,0.00,,,0.00,weatherlink.com 1.10,2013-12-24 08:44:00,
2013-12-24 01:59:00,24.4,14.0,30.26,South,187,0.0,5.0,64,0.00,,,0.00,weatherlink.com 1.10,2013-12-24 08:59:00,
2013-12-24 02:14:00,25.5,14.0,30.25,South,182,3.0,6.0,61,0.00,,,0.00,weatherlink.com 1.10,2013-12-24 09:14:00,
2013-12-24 02:29:00,25.7,14.0,30.23,South,189,3.0,9.0,61,0.00,,,0.00,weatherlink.com 1.10,2013-12-24 09:29:00,
2013-12-24 02:44:00,25.8,14.0,30.23,South,182,0.0,6.0,61,0.00,,,0.00,weatherlink.com 1.10,2013-12-24 09:44:00,
2013-12-24 02:59:00,25.6,14.0,30.23,South,190,0.0,6.0,62,0.00,,,0.00,weatherlink.com 1.10,2013-12-24 09:59:00,
2013-12-24 03:14:00,25.7,14.0,30.23,SSE,154,0.0,5.0,61,0.00,,,0.00,weatherlink.com 1.10,2013-12-24 10:14:00,
2013-12-24 03:29:00,23.5,12.0,30.22,SE,128,0.0,3.0,62,0.00,,,0.00,weatherlink.com 1.10,2013-12-24 10:29:00,
2013-12-24 03:44:00,23.2,13.0,30.22,SSW,203,0.0,10.0,66,0.00,,,0.00,weatherlink.com 1.10,2013-12-24 10:44:00,
2013-12-24 04:01:00,25.0,14.0,30.20,ESE,119,3.0,9.0,63,0.00,,,0.00,weatherlink.com 1.10,2013-12-24 11:01:00,
2013-12-24 04:15:00,25.1,15.0,30.20,SW,228,0.0,7.0,65,0.00,,,0.00,weatherlink.com 1.10,2013-12-24 11:15:00,
2013-12-24 04:29:00,25.2,15.0,30.20,South,174,0.0,7.0,65,0.00,,,0.00,weatherlink.com 1.10,2013-12-24 11:29:00,
2013-12-24 04:44:00,25.2,15.0,30.19,South,190,2.0,4.0,65,0.00,,,0.00,weatherlink.com 1.10,2013-12-24 11:44:00,
2013-12-24 05:00:00,25.2,15.0,30.19,SW,217,0.0,6.0,65,0.00,,,0.00,weatherlink.com 1.10,2013-12-24 12:00:00,
2013-12-24 05:15:00,25.4,15.0,30.19,SSW,198,0.0,6.0,66,0.00,,,0.00,weatherlink.com 1.10,2013-12-24 12:15:00,
2013-12-24 05:29:00,25.2,16.0,30.19,South,187,0.0,1.0,67,0.00,,,0.00,weatherlink.com 1.10,2013-12-24 12:29:00,
2013-12-24 05:44:00,24.7,15.0,30.18,South,188,0.0,3.0,67,0.00,,,0.00,weatherlink.com 1.10,2013-12-24 12:44:00,
2013-12-24 05:59:00,23.7,15.0,30.18,South,186,2.0,3.0,70,0.00,,,0.00,weatherlink.com 1.10,2013-12-24 12:59:00,
2013-12-24 06:15:00,23.5,15.0,30.16,South,186,0.0,4.0,71,0.00,,,0.00,weatherlink.com 1.10,2013-12-24 13:15:00,
2013-12-24 06:30:00,23.1,15.0,30.16,South,176,0.0,5.0,72,0.00,,,0.00,weatherlink.com 1.10,2013-12-24 13:30:00,
2013-12-24 06:45:00,23.1,16.0,30.16,South,175,0.0,4.0,74,0.00,,,0.00,weatherlink.com 1.10,2013-12-24 13:45:00,
2013-12-24 07:00:00,23.4,17.0,30.16,South,188,0.0,4.0,76,0.00,,,0.00,weatherlink.com 1.10,2013-12-24 14:00:00,
2013-12-24 07:15:00,23.7,17.0,30.16,SSE,158,0.0,0.0,76,0.00,,,0.00,weatherlink.com 1.10,2013-12-24 14:15:00,
2013-12-24 07:30:00,23.9,17.0,30.16,SSE,161,0.0,7.0,74,0.00,,,0.00,weatherlink.com 1.10,2013-12-24 14:30:00,
2013-12-24 07:45:00,24.5,17.0,30.16,South,178,0.0,3.0,72,0.00,,,0.00,weatherlink.com 1.10,2013-12-24 14:45:00,
2013-12-24 08:00:00,25.8,17.0,30.15,South,184,0.0,0.0,69,0.00,,,0.00,weatherlink.com 1.10,2013-12-24 15:00:00,
2013-12-24 08:15:00,27.1,17.0,30.14,South,172,0.0,3.0,66,0.00,,,0.00,weatherlink.com 1.10,2013-12-24 15:15:00,
2013-12-24 08:30:00,29.1,17.0,30.13,WSW,244,0.0,0.0,61,0.00,,,0.00,weatherlink.com 1.10,2013-12-24 15:30:00,
2013-12-24 08:45:00,32.3,18.0,30.12,SSW,213,0.0,4.0,55,0.00,,,0.00,weatherlink.com 1.10,2013-12-24 15:45:00,
2013-12-24 09:00:00,33.6,17.0,30.11,West,260,0.0,10.0,51,0.00,,,0.00,weatherlink.com 1.10,2013-12-24 16:00:00,
2013-12-24 09:15:00,34.1,18.0,30.11,WSW,252,2.0,6.0,51,0.00,,,0.00,weatherlink.com 1.10,2013-12-24 16:15:00,
2013-12-24 09:30:00,34.4,17.0,30.11,West,263,2.0,11.0,50,0.00,,,0.00,weatherlink.com 1.10,2013-12-24 16:30:00,
2013-12-24 09:45:00,34.1,18.0,30.11,West,259,4.0,14.0,52,0.00,,,0.00,weatherlink.com 1.10,2013-12-24 16:45:00,
2013-12-24 10:00:00,34.4,18.0,30.11,WSW,245,5.0,13.0,51,0.00,,,0.00,weatherlink.com 1.10,2013-12-24 17:00:00,
2013-12-24 10:15:00,34.8,17.0,30.11,WSW,246,2.0,12.0,49,0.00,,,0.00,weatherlink.com 1.10,2013-12-24 17:15:00,
2013-12-24 10:30:00,35.0,17.0,30.10,West,271,3.0,12.0,49,0.00,,,0.00,weatherlink.com 1.10,2013-12-24 17:30:00,
2013-12-24 10:45:00,35.0,17.0,30.09,WSW,245,6.0,10.0,48,0.00,,,0.00,weatherlink.com 1.10,2013-12-24 17:45:00,
2013-12-24 11:00:00,35.3,16.0,30.08,WSW,240,1.0,19.0,46,0.00,,,0.00,weatherlink.com 1.10,2013-12-24 18:00:00,
2013-12-24 11:15:00,35.5,16.0,30.07,WSW,257,2.0,18.0,46,0.00,,,0.00,weatherlink.com 1.10,2013-12-24 18:15:00,
2013-12-24 11:30:00,35.5,17.0,30.06,SSE,163,2.0,14.0,47,0.00,,,0.00,weatherlink.com 1.10,2013-12-24 18:30:00,
2013-12-24 11:45:00,35.3,17.0,30.05,SW,234,7.0,16.0,47,0.00,,,0.00,weatherlink.com 1.10,2013-12-24 18:45:00,
2013-12-24 12:00:00,34.9,18.0,30.04,ENE,73,2.0,17.0,50,0.00,,,0.00,weatherlink.com 1.10,2013-12-24 19:00:00,
2013-12-24 12:16:00,35.9,19.0,30.04,WSW,257,3.0,11.0,50,0.00,,,0.00,weatherlink.com 1.10,2013-12-24 19:16:00,
2013-12-24 12:31:00,34.1,18.0,30.04,SW,234,4.0,17.0,52,0.00,,,0.00,weatherlink.com 1.10,2013-12-24 19:31:00,
2013-12-24 12:46:00,33.0,18.0,30.03,West,269,3.0,14.0,55,0.00,,,0.00,weatherlink.com 1.10,2013-12-24 19:46:00,
2013-12-24 13:01:00,34.2,19.0,30.03,WNW,290,3.0,15.0,54,0.00,,,0.00,weatherlink.com 1.10,2013-12-24 20:01:00,
2013-12-24 13:16:00,34.4,18.0,30.03,WSW,248,1.0,10.0,52,0.00,,,0.00,weatherlink.com 1.10,2013-12-24 20:16:00,
2013-12-24 13:32:00,33.7,18.0,30.03,West,263,6.0,8.0,54,0.00,,,0.00,weatherlink.com 1.10,2013-12-24 20:32:00,
2013-12-24 13:47:00,34.0,19.0,30.03,West,259,0.0,7.0,55,0.00,,,0.00,weatherlink.com 1.10,2013-12-24 20:47:00,
2013-12-24 14:02:00,34.6,18.0,30.03,WSW,246,0.0,5.0,52,0.00,,,0.00,weatherlink.com 1.10,2013-12-24 21:02:00,
2013-12-24 14:16:00,33.6,19.0,30.04,West,277,3.0,12.0,56,0.00,,,0.00,weatherlink.com 1.10,2013-12-24 21:16:00,
2013-12-24 14:31:00,32.2,21.0,30.04,NW,306,9.0,12.0,64,0.00,,,0.00,weatherlink.com 1.10,2013-12-24 21:31:00,
2013-12-24 14:46:00,27.1,21.0,30.05,West,265,9.0,16.0,78,0.00,,,0.00,weatherlink.com 1.10,2013-12-24 21:46:00,
2013-12-24 15:03:00,25.9,20.0,30.06,WSW,245,5.0,9.0,78,0.00,,,0.00,weatherlink.com 1.10,2013-12-24 22:03:00,
2013-12-24 15:16:00,25.6,18.0,30.07,WSW,250,6.0,10.0,72,0.00,,,0.00,weatherlink.com 1.10,2013-12-24 22:16:00,
2013-12-24 15:31:00,25.4,16.0,30.09,WNW,298,5.0,11.0,67,0.00,,,0.00,weatherlink.com 1.10,2013-12-24 22:31:00,
2013-12-24 15:46:00,25.0,14.0,30.10,West,277,1.0,17.0,64,0.00,,,0.00,weatherlink.com 1.10,2013-12-24 22:46:00,
2013-12-24 16:01:00,23.3,14.0,30.12,NNW,341,2.0,10.0,67,0.00,,,0.00,weatherlink.com 1.10,2013-12-24 23:01:00,
2013-12-24 16:16:00,22.3,12.0,30.13,WNW,291,2.0,9.0,64,0.00,,,0.00,weatherlink.com 1.10,2013-12-24 23:16:00,
2013-12-24 16:31:00,21.8,11.0,30.13,NNW,327,0.0,16.0,64,0.00,,,0.00,weatherlink.com 1.10,2013-12-24 23:31:00,
2013-12-24 16:46:00,21.1,10.0,30.15,West,273,4.0,9.0,62,0.00,,,0.00,weatherlink.com 1.10,2013-12-24 23:46:00,
2013-12-24 17:01:00,19.7,9.0,30.16,West,278,1.0,8.0,63,0.00,,,0.00,weatherlink.com 1.10,2013-12-25 00:01:00,
2013-12-24 17:16:00,19.0,9.0,30.16,NW,313,3.0,10.0,66,0.00,,,0.00,weatherlink.com 1.10,2013-12-25 00:16:00,
2013-12-24 17:31:00,19.2,8.0,30.15,WSW,246,0.0,8.0,62,0.00,,,0.00,weatherlink.com 1.10,2013-12-25 00:31:00,
2013-12-24 17:47:00,18.2,8.0,30.17,NNW,329,0.0,9.0,64,0.00,,,0.00,weatherlink.com 1.10,2013-12-25 00:47:00,
2013-12-24 18:02:00,17.4,6.0,30.18,NNW,340,3.0,5.0,61,0.00,,,0.00,weatherlink.com 1.10,2013-12-25 01:02:00,
2013-12-24 18:17:00,18.3,6.0,30.19,West,261,7.0,12.0,58,0.00,,,0.00,weatherlink.com 1.10,2013-12-25 01:17:00,
2013-12-24 18:32:00,18.4,4.0,30.21,SW,230,3.0,8.0,54,0.00,,,0.00,weatherlink.com 1.10,2013-12-25 01:32:00,
2013-12-24 18:48:00,18.4,4.0,30.21,West,271,0.0,13.0,54,0.00,,,0.00,weatherlink.com 1.10,2013-12-25 01:48:00,
2013-12-24 19:02:00,18.5,3.0,30.23,West,271,5.0,17.0,51,0.00,,,0.00,weatherlink.com 1.10,2013-12-25 02:02:00,
2013-12-24 19:17:00,17.6,4.0,30.25,WSW,255,0.0,11.0,55,0.00,,,0.00,weatherlink.com 1.10,2013-12-25 02:17:00,
2013-12-24 19:32:00,17.5,3.0,30.25,WSW,254,0.0,8.0,53,0.00,,,0.00,weatherlink.com 1.10,2013-12-25 02:32:00,
2013-12-24 19:47:00,16.8,3.0,30.25,SW,236,3.0,12.0,54,0.00,,,0.00,weatherlink.com 1.10,2013-12-25 02:47:00,
2013-12-24 20:02:00,16.0,1.0,30.26,West,261,2.0,10.0,51,0.00,,,0.00,weatherlink.com 1.10,2013-12-25 03:02:00,
2013-12-24 20:17:00,15.5,-1.0,30.27,SE,132,0.0,0.0,49,0.00,,,0.00,weatherlink.com 1.10,2013-12-25 03:17:00,
2013-12-24 20:32:00,14.3,-2.0,30.28,WSW,252,0.0,4.0,49,0.00,,,0.00,weatherlink.com 1.10,2013-12-25 03:32:00,
2013-12-24 20:47:00,14.8,-1.0,30.28,WSW,251,0.0,6.0,49,0.00,,,0.00,weatherlink.com 1.10,2013-12-25 03:47:00,
2013-12-24 21:02:00,14.6,-2.0,30.28,WSW,252,0.0,5.0,48,0.00,,,0.00,weatherlink.com 1.10,2013-12-25 04:02:00,
2013-12-24 21:17:00,13.2,-2.0,30.29,WSW,252,0.0,0.0,51,0.00,,,0.00,weatherlink.com 1.10,2013-12-25 04:17:00,
2013-12-24 21:33:00,12.4,-2.0,30.29,WSW,252,0.0,0.0,54,0.00,,,0.00,weatherlink.com 1.10,2013-12-25 04:33:00,
2013-12-24 21:48:00,11.7,-1.0,30.29,WSW,252,0.0,0.0,58,0.00,,,0.00,weatherlink.com 1.10,2013-12-25 04:48:00,
2013-12-24 22:03:00,11.4,-1.0,30.29,WSW,252,0.0,0.0,58,0.00,,,0.00,weatherlink.com 1.10,2013-12-25 05:03:00,
2013-12-24 22:19:00,10.9,-1.0,30.30,WSW,252,0.0,0.0,59,0.00,,,0.00,weatherlink.com 1.10,2013-12-25 05:19:00,
2013-12-24 22:35:00,9.7,-4.0,30.30,SSE,151,0.0,0.0,55,0.00,,,0.00,weatherlink.com 1.10,2013-12-25 05:35:00,
2013-12-24 22:49:00,9.1,-3.0,30.30,SSE,152,0.0,0.0,57,0.00,,,0.00,weatherlink.com 1.10,2013-12-25 05:49:00,
2013-12-24 23:06:00,9.4,-3.0,30.31,SSE,152,0.0,0.0,57,0.00,,,0.00,weatherlink.com 1.10,2013-12-25 06:06:00,
2013-12-24 23:19:00,9.3,-3.0,30.30,SSE,152,0.0,0.0,57,0.00,,,0.00,weatherlink.com 1.10,2013-12-25 06:19:00,
2013-12-24 23:34:00,9.1,-3.0,30.31,SSE,152,0.0,0.0,57,0.00,,,0.00,weatherlink.com 1.10,2013-12-25 06:34:00,
2013-12-24 23:49:00,9.5,-3.0,30.30,SE,145,0.0,0.0,58,0.00,,,0.00,weatherlink.com 1.10,2013-12-25 06:49:00,